createdAt,value
2023-04-20T00:00:34.226Z,9.50
2023-04-20T00:03:02.073Z,9.20
2023-04-20T00:05:32.058Z,10.80
2023-04-20T00:07:59.307Z,9.00
2023-04-20T00:10:26.488Z,9.10
2023-04-20T00:12:53.507Z,9.10
2023-04-20T00:15:20.552Z,9.10
2023-04-20T00:17:48.675Z,9.10
2023-04-20T00:20:16.543Z,9.10
2023-04-20T00:22:43.484Z,9.00
2023-04-20T00:25:10.459Z,9.00
2023-04-20T00:27:37.624Z,10.80
2023-04-20T00:30:05.087Z,9.00
2023-04-20T00:32:32.267Z,8.90
2023-04-20T00:34:59.813Z,10.30
2023-04-20T00:39:55.811Z,8.90
2023-04-20T00:42:23.058Z,8.90
2023-04-20T00:44:51.921Z,8.90
2023-04-20T00:47:19.241Z,11.30
2023-04-20T00:49:46.385Z,8.80
2023-04-20T00:52:13.649Z,10.10
2023-04-20T00:54:41.376Z,10.80
2023-04-20T00:57:13.396Z,9.90
2023-04-20T00:59:41.643Z,9.30
2023-04-20T01:02:08.724Z,8.70
2023-04-20T01:04:39.995Z,8.70
2023-04-20T01:07:07.183Z,10.30
2023-04-20T01:09:34.160Z,8.60
2023-04-20T01:12:01.743Z,8.50
2023-04-20T01:14:28.737Z,9.20
2023-04-20T01:16:56.959Z,8.40
2023-04-20T01:19:23.862Z,8.40
2023-04-20T01:21:51.016Z,8.40
2023-04-20T01:24:17.894Z,8.30
2023-04-20T01:26:44.797Z,8.30
2023-04-20T01:29:11.700Z,8.30
2023-04-20T01:31:38.662Z,9.70
2023-04-20T01:34:05.672Z,9.70
2023-04-20T01:36:33.673Z,8.20
2023-04-20T01:39:00.946Z,8.10
2023-04-20T01:41:29.156Z,8.10
2023-04-20T01:43:56.890Z,9.30
2023-04-20T01:46:23.909Z,10.10
2023-04-20T01:48:51.661Z,8.60
2023-04-20T01:51:18.544Z,8.80
2023-04-20T01:53:45.791Z,8.00
2023-04-20T01:56:13.023Z,9.90
2023-04-20T01:58:40.068Z,8.10
2023-04-20T02:01:07.029Z,9.10
2023-04-20T02:03:34.491Z,9.30
2023-04-20T02:06:01.682Z,8.10
2023-04-20T02:08:30.216Z,8.20
2023-04-20T02:10:57.170Z,10.40
2023-04-20T02:13:24.274Z,10.60
2023-04-20T02:15:51.397Z,8.20
2023-04-20T02:18:18.366Z,9.80
2023-04-20T02:20:46.058Z,8.20
2023-04-20T02:23:13.486Z,8.10
2023-04-20T02:25:40.450Z,10.30
2023-04-20T02:28:07.454Z,10.40
2023-04-20T02:30:34.398Z,9.90
2023-04-20T02:33:01.499Z,8.00
2023-04-20T02:35:28.502Z,8.00
2023-04-20T02:37:55.766Z,7.90
2023-04-20T02:40:22.888Z,8.80
2023-04-20T02:42:50.193Z,7.90
2023-04-20T02:45:17.326Z,7.90
2023-04-20T02:47:47.946Z,7.80
2023-04-20T02:50:15.664Z,8.90
2023-04-20T02:52:59.649Z,9.80
2023-04-20T02:55:27.265Z,9.40
2023-04-20T02:58:01.116Z,7.80
2023-04-20T03:00:47.446Z,7.80
2023-04-20T03:03:15.577Z,8.70
2023-04-20T03:05:43.813Z,9.80
2023-04-20T03:08:10.909Z,8.80
2023-04-20T03:10:38.706Z,5.70
2023-04-20T03:13:15.096Z,7.70
2023-04-20T03:15:59.133Z,7.80
2023-04-20T03:18:31.096Z,7.60
2023-04-20T03:20:58.306Z,7.90
2023-04-20T03:23:25.491Z,7.70
2023-04-20T03:25:52.799Z,7.70
2023-04-20T03:28:32.113Z,9.60
2023-04-20T03:31:01.132Z,7.70
2023-04-20T03:33:29.484Z,7.80
2023-04-20T03:35:57.180Z,7.80
2023-04-20T03:38:24.114Z,7.80
2023-04-20T03:40:52.184Z,7.80
2023-04-20T03:43:19.147Z,7.90
2023-04-20T03:45:46.558Z,7.90
2023-04-20T03:48:17.575Z,7.90
2023-04-20T03:50:44.731Z,9.90
2023-04-20T03:53:11.627Z,8.00
2023-04-20T03:55:39.022Z,9.60
2023-04-20T03:58:11.413Z,8.90
2023-04-20T04:00:48.318Z,7.50
2023-04-20T04:03:15.867Z,8.40
2023-04-20T04:05:42.994Z,8.30
2023-04-20T04:08:10.127Z,8.30
2023-04-20T04:10:37.028Z,10.10
2023-04-20T04:13:03.982Z,8.40
2023-04-20T04:15:32.128Z,8.40
2023-04-20T04:18:03.570Z,8.50
2023-04-20T04:20:32.846Z,8.50
2023-04-20T04:23:00.758Z,8.60
2023-04-20T04:25:40.298Z,8.60
2023-04-20T04:28:08.637Z,10.70
2023-04-20T04:30:40.617Z,8.60
2023-04-20T04:33:10.217Z,10.70
2023-04-20T04:35:41.483Z,10.20
2023-04-20T04:38:09.548Z,9.20
2023-04-20T04:40:38.101Z,10.70
2023-04-20T04:43:07.736Z,11.10
2023-04-20T04:45:41.012Z,9.40
2023-04-20T04:48:12.548Z,9.60
2023-04-20T04:50:40.171Z,11.20
2023-04-20T04:53:07.964Z,8.90
2023-04-20T04:55:34.897Z,9.80
2023-04-20T04:58:02.652Z,9.00
2023-04-20T05:00:29.608Z,9.10
2023-04-20T05:02:57.328Z,10.30
2023-04-20T05:05:25.474Z,11.50
2023-04-20T05:07:52.377Z,9.20
2023-04-20T05:12:47.480Z,9.30
2023-04-20T05:15:14.478Z,10.70
2023-04-20T05:17:41.561Z,11.70
2023-04-20T05:20:10.702Z,11.50
2023-04-20T05:22:38.124Z,9.40
2023-04-20T05:25:06.745Z,9.50
2023-04-20T05:27:34.527Z,9.50
2023-04-20T05:30:16.706Z,11.70
2023-04-20T05:32:47.798Z,9.50
2023-04-20T05:35:17.223Z,9.60
2023-04-20T05:37:44.122Z,9.50
2023-04-20T05:40:11.753Z,9.50
2023-04-20T05:42:38.798Z,9.50
2023-04-20T05:45:06.967Z,10.00
2023-04-20T05:47:33.981Z,9.50
2023-04-20T05:50:01.141Z,10.00
2023-04-20T05:52:28.047Z,9.60
2023-04-20T05:54:54.972Z,12.70
2023-04-20T05:57:23.542Z,10.50
2023-04-20T05:59:50.737Z,9.70
2023-04-20T06:02:17.750Z,11.30
2023-04-20T06:04:44.850Z,11.50
2023-04-20T06:07:11.922Z,11.10
2023-04-20T06:09:38.940Z,11.10
2023-04-20T06:12:06.157Z,10.00
2023-04-20T06:14:33.852Z,10.10
2023-04-20T06:17:00.818Z,10.80
2023-04-20T06:19:27.761Z,10.20
2023-04-20T06:21:54.660Z,11.80
2023-04-20T06:24:21.736Z,10.60
2023-04-20T06:26:48.664Z,12.00
2023-04-20T06:29:16.598Z,10.40
2023-04-20T06:31:43.772Z,10.50
2023-04-20T06:34:10.810Z,12.30
2023-04-20T06:36:37.702Z,11.60
2023-04-20T06:39:05.169Z,11.50
2023-04-20T06:41:32.036Z,11.50
2023-04-20T06:44:06.283Z,12.10
2023-04-20T06:46:33.389Z,10.70
2023-04-20T06:49:00.457Z,10.80
2023-04-20T06:51:29.354Z,11.20
2023-04-20T06:53:56.612Z,10.90
2023-04-20T06:56:23.807Z,10.90
2023-04-20T06:58:51.083Z,11.00
2023-04-20T07:01:18.130Z,13.00
2023-04-20T07:03:47.109Z,13.30
2023-04-20T07:06:16.979Z,11.10
2023-04-20T07:08:43.963Z,12.40
2023-04-20T07:11:10.971Z,11.00
2023-04-20T07:13:37.978Z,11.40
2023-04-20T07:16:05.327Z,11.10
2023-04-20T07:18:34.681Z,11.00
2023-04-20T07:21:02.468Z,11.80
2023-04-20T07:23:29.545Z,12.10
2023-04-20T07:25:56.610Z,11.00
2023-04-20T07:28:23.669Z,11.80
2023-04-20T07:30:50.647Z,13.50
2023-04-20T07:33:17.599Z,11.00
2023-04-20T07:35:44.681Z,13.30
2023-04-20T07:38:11.727Z,12.40
2023-04-20T07:40:38.638Z,13.10
2023-04-20T10:30:56.937Z,15.10
2023-04-20T10:33:24.058Z,16.10
2023-04-20T10:35:57.765Z,14.90
2023-04-20T10:38:43.046Z,14.70
2023-04-20T10:41:12.721Z,14.60
2023-04-20T10:43:43.234Z,14.50
2023-04-20T10:46:18.920Z,14.40
2023-04-20T10:48:54.048Z,14.40
2023-04-20T10:51:22.158Z,16.30
2023-04-20T10:54:08.703Z,15.90
2023-04-20T10:56:47.656Z,14.50
2023-04-20T10:59:17.853Z,14.50
2023-04-20T11:01:46.806Z,16.50
2023-04-20T11:04:17.800Z,14.60
2023-04-20T11:06:48.516Z,15.30
2023-04-20T11:09:26.479Z,14.60
2023-04-20T11:12:06.017Z,14.50
2023-04-20T11:14:38.991Z,14.40
2023-04-20T11:17:06.836Z,14.80
2023-04-20T11:19:37.087Z,14.70
2023-04-20T11:22:06.416Z,14.20
2023-04-20T11:24:34.687Z,16.10
2023-04-20T11:27:04.753Z,14.20
2023-04-20T11:29:35.246Z,14.10
2023-04-20T11:32:07.385Z,16.00
2023-04-20T11:34:37.343Z,14.00
2023-04-20T11:37:08.196Z,14.90
2023-04-20T11:39:35.371Z,14.70
2023-04-20T11:42:03.476Z,15.20
2023-04-20T11:44:30.651Z,14.80
2023-04-20T11:46:58.094Z,16.00
2023-04-20T11:49:27.480Z,15.10
2023-04-20T11:51:54.779Z,14.80
2023-04-20T11:54:25.347Z,13.60
2023-04-20T11:56:52.358Z,15.20
2023-04-20T11:59:20.793Z,13.60
2023-04-20T12:01:48.521Z,15.80
2023-04-20T12:04:16.366Z,14.60
2023-04-20T12:06:44.174Z,14.10
2023-04-20T12:09:11.369Z,16.50
2023-04-20T12:11:38.545Z,14.50
2023-04-20T12:14:05.517Z,15.70
2023-04-20T12:16:32.673Z,15.70
2023-04-20T12:18:59.800Z,14.90
2023-04-20T12:21:27.763Z,15.20
2023-04-20T12:23:55.036Z,13.70
2023-04-20T12:26:27.068Z,15.50
2023-04-20T12:29:02.436Z,14.30
2023-04-20T12:31:29.548Z,14.70
2023-04-20T12:33:56.572Z,13.00
2023-04-20T12:36:23.567Z,12.90
2023-04-20T12:38:55.864Z,13.70
2023-04-20T12:41:23.535Z,13.20
2023-04-20T12:43:51.566Z,13.40
2023-04-20T12:46:18.742Z,13.60
2023-04-20T12:48:46.051Z,15.30
2023-04-20T12:51:15.098Z,15.00
2023-04-20T12:53:42.254Z,16.00
2023-04-20T12:56:09.262Z,15.60
2023-04-20T12:58:36.194Z,16.40
2023-04-20T13:01:03.721Z,15.20
2023-04-20T13:03:30.945Z,16.80
2023-04-20T13:05:59.556Z,16.40
2023-04-20T13:08:26.826Z,14.90
2023-04-20T13:10:53.894Z,14.80
2023-04-20T13:13:20.802Z,15.00
2023-04-20T13:15:47.821Z,15.50
2023-04-20T13:18:15.512Z,14.80
2023-04-20T13:20:42.587Z,15.00
2023-04-20T13:23:09.534Z,16.50
2023-04-20T13:25:38.664Z,17.00
2023-04-20T13:28:06.028Z,14.60
2023-04-20T13:30:33.142Z,15.80
2023-04-20T13:33:00.302Z,14.90
2023-04-20T13:35:27.521Z,16.40
2023-04-20T13:37:54.448Z,16.30
2023-04-20T13:40:21.538Z,15.70
2023-04-20T13:42:48.423Z,16.00
2023-04-20T13:45:15.695Z,16.10
2023-04-20T13:47:42.974Z,16.10
2023-04-20T13:50:10.625Z,16.00
2023-04-20T13:52:37.888Z,15.90
2023-04-20T13:55:05.783Z,16.10
2023-04-20T13:57:32.760Z,15.40
2023-04-20T14:00:01.834Z,15.30
2023-04-20T14:02:33.312Z,15.10
2023-04-20T14:05:00.299Z,14.70
2023-04-20T14:07:27.255Z,14.60
2023-04-20T14:09:56.484Z,16.60
2023-04-20T14:12:23.732Z,14.30
2023-04-20T14:14:50.818Z,15.80
2023-04-20T14:17:17.767Z,14.30
2023-04-20T14:19:44.962Z,14.30
2023-04-20T14:22:12.037Z,14.40
2023-04-20T14:24:39.007Z,16.20
2023-04-20T14:27:05.928Z,14.90
2023-04-20T14:29:32.945Z,15.30
2023-04-20T14:32:00.056Z,16.30
2023-04-20T14:34:27.059Z,16.20
2023-04-20T14:36:54.034Z,16.60
2023-04-20T14:39:21.125Z,17.10
2023-04-20T14:41:48.042Z,17.40
2023-04-20T14:44:15.002Z,18.80
2023-04-20T14:46:42.682Z,17.80
2023-04-20T14:49:10.650Z,17.80
2023-04-20T14:51:37.723Z,17.70
2023-04-20T14:54:04.836Z,17.50
2023-04-20T14:56:32.843Z,17.40
2023-04-20T14:58:59.810Z,17.00
2023-04-20T15:01:27.848Z,16.80
2023-04-20T15:03:55.347Z,16.60
2023-04-20T15:06:22.624Z,16.40
2023-04-20T15:08:49.748Z,16.90
2023-04-20T15:11:17.829Z,17.40
2023-04-20T15:13:44.704Z,15.90
2023-04-20T15:16:11.916Z,17.20
2023-04-20T15:18:38.990Z,16.50
2023-04-20T15:21:08.364Z,17.10
2023-04-20T15:23:35.414Z,15.50
2023-04-20T15:26:02.764Z,15.60
2023-04-20T15:28:29.959Z,15.80
2023-04-20T15:30:59.139Z,15.80
2023-04-20T15:33:26.107Z,15.90
2023-04-20T15:35:54.421Z,16.00
2023-04-20T15:38:21.403Z,16.10
2023-04-20T15:40:48.490Z,16.30
2023-04-20T15:43:15.583Z,16.30
2023-04-20T15:45:44.732Z,18.20
2023-04-20T15:48:11.900Z,16.70
2023-04-20T15:50:38.992Z,16.30
2023-04-20T15:53:06.051Z,16.10
2023-04-20T15:55:35.688Z,16.90
2023-04-20T15:58:02.831Z,16.10
2023-04-20T16:00:29.965Z,16.10
2023-04-20T16:02:58.754Z,16.10
2023-04-20T16:05:27.373Z,16.00
2023-04-20T16:07:56.983Z,15.90
2023-04-20T16:10:23.935Z,16.20
2023-04-20T16:12:51.764Z,15.90
2023-04-20T16:15:19.049Z,16.00
2023-04-20T16:17:46.121Z,17.00
2023-04-20T16:20:13.827Z,16.50
2023-04-20T16:22:41.011Z,16.70
2023-04-20T16:25:09.468Z,17.00
2023-04-20T16:27:36.502Z,17.20
2023-04-20T16:30:03.973Z,17.50
2023-04-20T16:32:31.623Z,17.60
2023-04-20T16:34:58.861Z,17.60
2023-04-20T16:37:25.927Z,17.70
2023-04-20T16:39:52.818Z,17.70
2023-04-20T16:42:19.722Z,17.70
2023-04-20T16:44:46.933Z,17.80
2023-04-20T16:47:14.059Z,17.80
2023-04-20T16:49:40.998Z,17.90
2023-04-20T16:52:08.753Z,18.10
2023-04-20T16:54:35.778Z,19.10
2023-04-20T16:57:03.639Z,19.30
2023-04-20T16:59:30.751Z,18.70
2023-04-20T17:01:57.766Z,18.70
2023-04-20T17:04:25.175Z,18.60
2023-04-20T17:06:53.058Z,18.50
2023-04-20T17:09:20.170Z,19.10
2023-04-20T17:11:47.139Z,18.30
2023-04-20T17:14:14.396Z,17.90
2023-04-20T17:16:41.422Z,18.10
2023-04-20T17:19:08.658Z,19.00
2023-04-20T17:21:35.616Z,17.10
2023-04-20T17:24:02.999Z,16.70
2023-04-20T17:26:29.967Z,16.50
2023-04-20T17:28:57.046Z,16.20
2023-04-20T17:31:25.577Z,16.00
2023-04-20T17:33:52.811Z,15.80
2023-04-20T17:36:19.880Z,18.20
2023-04-20T17:38:46.827Z,15.40
2023-04-20T17:41:13.723Z,15.70
2023-04-20T17:43:40.990Z,16.10
2023-04-20T17:46:08.129Z,16.00
2023-04-20T17:48:35.328Z,15.00
2023-04-20T17:51:02.341Z,15.00
2023-04-20T17:53:29.507Z,17.50
2023-04-20T17:55:56.610Z,14.90
2023-04-20T17:58:24.980Z,16.00
2023-04-20T18:00:52.127Z,15.90
2023-04-20T18:03:24.586Z,16.50
2023-04-20T18:05:54.143Z,14.50
2023-04-20T18:08:23.205Z,15.00
2023-04-20T18:10:50.177Z,14.90
2023-04-20T18:13:17.346Z,15.20
2023-04-20T18:15:44.608Z,16.20
2023-04-20T18:18:11.925Z,14.90
2023-04-20T18:20:39.035Z,16.10
2023-04-20T18:23:05.971Z,15.70
2023-04-20T18:25:32.940Z,15.50
2023-04-20T18:28:00.202Z,14.50
2023-04-20T18:30:27.157Z,16.20
2023-04-20T18:32:54.200Z,16.00
2023-04-20T18:35:21.179Z,15.40
2023-04-20T18:37:48.108Z,15.10
2023-04-20T18:40:16.639Z,14.70
2023-04-20T18:42:43.775Z,13.50
2023-04-20T18:45:13.194Z,13.70
2023-04-20T18:47:40.313Z,13.20
2023-04-20T18:50:07.877Z,15.70
2023-04-20T18:52:36.140Z,12.90
2023-04-20T18:55:04.899Z,14.90
2023-04-20T18:57:31.829Z,14.10
2023-04-20T18:59:58.758Z,13.80
2023-04-20T19:02:26.122Z,14.20
2023-04-20T19:04:53.414Z,12.40
2023-04-20T19:07:20.460Z,12.60
2023-04-20T19:09:47.528Z,12.30
2023-04-20T19:12:14.521Z,12.20
2023-04-20T19:14:41.539Z,12.10
2023-04-20T19:17:08.900Z,13.50
2023-04-20T19:19:35.913Z,12.00
2023-04-20T19:22:04.117Z,11.80
2023-04-20T19:24:34.365Z,12.70
2023-04-20T19:27:02.253Z,11.90
2023-04-20T19:29:29.524Z,11.60
2023-04-20T19:31:57.913Z,11.60
2023-04-20T19:34:24.823Z,13.30
2023-04-20T19:36:52.409Z,11.40
2023-04-20T19:39:19.627Z,13.60
2023-04-20T19:41:49.691Z,11.70
2023-04-20T19:44:16.897Z,11.20
2023-04-20T19:46:44.009Z,11.20
2023-04-20T19:49:11.009Z,12.10
2023-04-20T19:51:38.193Z,13.00
2023-04-20T19:54:05.412Z,11.80
2023-04-20T19:56:33.590Z,11.00
2023-04-20T19:59:00.782Z,10.90
2023-04-20T20:01:29.356Z,10.90
2023-04-20T20:03:56.952Z,10.90
2023-04-20T20:06:27.366Z,12.00
2023-04-20T20:08:54.476Z,13.50
2023-04-20T20:11:22.513Z,10.80
2023-04-20T20:13:49.523Z,10.80
2023-04-20T20:16:17.029Z,13.70
2023-04-20T20:18:44.963Z,10.80
2023-04-20T20:21:12.067Z,12.30
2023-04-20T20:23:39.311Z,13.20
2023-04-20T20:26:06.405Z,11.60
2023-04-20T20:28:33.326Z,10.80
2023-04-20T20:31:00.595Z,13.30
2023-04-20T20:33:27.487Z,10.90
2023-04-20T20:35:55.390Z,11.20
2023-04-20T20:38:22.597Z,10.80
2023-04-20T20:40:50.559Z,12.00
2023-04-20T20:43:18.911Z,10.90
2023-04-20T20:45:47.208Z,11.40
2023-04-20T20:48:14.181Z,11.90
2023-04-20T20:50:41.098Z,12.80
2023-04-20T20:53:08.952Z,10.80
2023-04-20T20:55:35.915Z,10.80
2023-04-20T20:58:02.803Z,10.80
2023-04-20T21:00:30.052Z,12.80
2023-04-20T21:02:57.165Z,10.90
2023-04-20T21:05:24.630Z,12.50
2023-04-20T21:07:51.615Z,11.40
2023-04-20T21:10:18.733Z,11.50
2023-04-20T21:12:45.877Z,10.90
2023-04-20T21:15:13.140Z,10.90
2023-04-20T21:17:40.220Z,10.90
2023-04-20T21:20:09.222Z,10.90
2023-04-20T21:22:39.271Z,10.90
2023-04-20T21:25:07.169Z,11.00
2023-04-20T21:27:34.221Z,10.90
2023-04-20T21:30:01.344Z,10.90
2023-04-20T21:32:28.469Z,10.90
2023-04-20T21:34:55.580Z,12.40
2023-04-20T21:37:22.788Z,10.90
2023-04-20T21:39:53.216Z,12.70
2023-04-20T21:42:20.335Z,11.00
2023-04-20T21:44:47.425Z,10.90
2023-04-20T21:47:14.478Z,12.80
2023-04-20T21:49:41.388Z,13.00
2023-04-20T21:52:08.356Z,11.00
2023-04-20T21:54:35.889Z,12.10
2023-04-20T21:57:02.972Z,12.80
2023-04-20T21:59:30.043Z,13.80
2023-04-20T22:01:57.060Z,12.50
2023-04-20T22:04:25.980Z,11.00
2023-04-20T22:06:55.546Z,11.90
2023-04-20T22:09:23.283Z,13.90
2023-04-20T22:11:50.245Z,12.10
2023-04-20T22:14:18.346Z,10.80
2023-04-20T22:16:46.232Z,12.20
2023-04-20T22:19:13.607Z,12.90
2023-04-20T22:21:40.565Z,10.70
2023-04-20T22:24:07.665Z,11.30
2023-04-20T22:26:34.976Z,10.60
2023-04-20T22:29:01.951Z,12.40
2023-04-20T22:31:28.868Z,11.40
2023-04-20T22:33:55.821Z,10.30
2023-04-20T22:36:22.784Z,11.70
2023-04-20T22:38:49.772Z,11.10
2023-04-20T22:41:17.657Z,11.00
2023-04-20T22:43:44.809Z,10.10
2023-04-20T22:46:12.018Z,10.10
2023-04-20T22:48:40.409Z,10.60
2023-04-20T22:51:07.283Z,10.00
2023-04-20T22:53:34.779Z,12.30
2023-04-20T22:56:07.151Z,12.10
2023-04-20T22:58:34.416Z,9.90
2023-04-20T23:01:01.861Z,9.90
2023-04-20T23:03:29.105Z,9.80
2023-04-20T23:05:57.518Z,9.80
2023-04-20T23:08:26.200Z,10.60
2023-04-20T23:10:55.928Z,9.80
2023-04-20T23:13:26.118Z,11.50
2023-04-20T23:15:53.519Z,9.70
2023-04-20T23:18:20.556Z,9.70
2023-04-20T23:20:47.520Z,11.00
2023-04-20T23:23:14.440Z,9.70
2023-04-20T23:25:41.627Z,9.70
2023-04-20T23:28:08.583Z,9.60
2023-04-20T23:30:36.412Z,11.50
2023-04-20T23:33:03.436Z,9.90
2023-04-20T23:35:30.599Z,9.60
2023-04-20T23:37:58.228Z,10.10
2023-04-20T23:40:25.454Z,10.70
2023-04-20T23:42:52.541Z,9.60
2023-04-20T23:45:19.657Z,9.60
2023-04-20T23:47:46.731Z,9.70
2023-04-20T23:50:14.233Z,9.60
2023-04-20T23:52:41.317Z,9.60
2023-04-20T23:55:10.405Z,9.60
2023-04-20T23:57:37.281Z,9.50
